Time;durP1;ratioP1;P1;durP2;ratioP2;P2;SDS_P1;SDS_P2;PMS_P1;PMS_P2;Temp;Humidity;BMP_temperature;BMP_pressure;BME280_temperature;BME280_humidity;BME280_pressure;Samples;Min_cycle;Max_cycle;Signal;HPM_P1;HPM_P2
2023/10/07 00:01:37;;;;;;;11.13;8.75;;;;;;;;;;5071583;28;20621;-62
2023/10/07 00:04:05;;;;;;;14.00;8.52;;;;;;;;;;5072766;28;20024;-62
2023/10/07 00:06:30;;;;;;;;;;;;;;;;;;5072343;28;20495;-62
2023/10/07 00:08:58;;;;;;;17.08;7.22;;;;;;;;;;5072932;28;20414;-62
2023/10/07 00:11:23;;;;;;;11.70;7.80;;;;;;;;;;5071329;28;20048;-62
2023/10/07 00:13:51;;;;;;;16.10;9.93;;;;;;;;;;5073083;28;20016;-62
2023/10/07 00:16:18;;;;;;;12.50;7.60;;;;;;;;;;5071207;28;20560;-62
2023/10/07 00:18:43;;;;;;;22.42;9.90;;;;;;;;;;5072663;28;20039;-62
2023/10/07 00:21:15;;;;;;;24.45;10.30;;;;;;;;;;5070808;28;20032;-62
2023/10/07 00:23:42;;;;;;;18.80;8.40;;;;;;;;;;5072964;28;20404;-61
2023/10/07 00:26:09;;;;;;;16.23;10.03;;;;;;;;;;5071002;28;20498;-62
2023/10/07 00:28:36;;;;;;;12.07;7.57;;;;;;;;;;5072973;28;20060;-68
2023/10/07 00:31:12;;;;;;;16.85;8.18;;;;;;;;;;5070831;28;20044;-62
2023/10/07 00:34:02;;;;;;;13.60;9.30;;;;;;;;;;5072062;28;20051;-62
2023/10/07 00:36:41;;;;;;;21.60;8.85;;;;;;;;;;5071102;28;20128;-62
2023/10/07 00:39:07;;;;;;;19.65;9.90;;;;;;;;;;5072949;28;20028;-62
2023/10/07 00:41:54;;;;;;;30.48;10.93;;;;;;;;;;5070903;28;20458;-62
2023/10/07 00:44:23;;;;;;;14.13;8.90;;;;;;;;;;5072244;28;20025;-62
2023/10/07 00:46:55;;;;;;;13.57;9.27;;;;;;;;;;5070837;28;20068;-63
2023/10/07 00:49:22;;;;;;;16.33;9.02;;;;;;;;;;5070740;28;20029;-63
2023/10/07 00:51:49;;;;;;;19.33;9.07;;;;;;;;;;5070820;28;20058;-64
2023/10/07 00:56:44;;;;;;;20.25;9.88;;;;;;;;;;5070398;28;20484;-62
2023/10/07 00:59:10;;;;;;;15.10;9.45;;;;;;;;;;5071973;28;20052;-62
2023/10/07 01:01:36;;;;;;;16.98;9.77;;;;;;;;;;5070904;28;20076;-62
2023/10/07 01:04:07;;;;;;;18.98;9.60;;;;;;;;;;5071546;28;20033;-62
2023/10/07 01:06:32;;;;;;;14.57;8.48;;;;;;;;;;5070628;28;20040;-63
2023/10/07 01:09:08;;;;;;;19.35;9.75;;;;;;;;;;5072092;28;20113;-62
2023/10/07 01:11:37;;;;;;;24.98;11.20;;;;;;;;;;5070019;28;20056;-62
2023/10/07 01:14:05;;;;;;;40.10;9.07;;;;;;;;;;5071715;28;20021;-63
2023/10/07 01:16:45;;;;;;;20.80;11.15;;;;;;;;;;5070457;28;20037;-63
2023/10/07 01:21:50;;;;;;;28.33;10.27;;;;;;;;;;5069558;28;20045;-63
2023/10/07 01:24:15;;;;;;;22.60;9.88;;;;;;;;;;5071674;28;20104;-62
2023/10/07 01:26:44;;;;;;;18.73;10.50;;;;;;;;;;5069283;28;20139;-63
2023/10/07 01:29:16;;;;;;;21.33;10.50;;;;;;;;;;5071648;28;20025;-63
2023/10/07 01:31:59;;;;;;;11.00;7.85;;;;;;;;;;5069186;28;20111;-62
2023/10/07 01:34:24;;;;;;;21.48;8.98;;;;;;;;;;5070815;28;20560;-62
2023/10/07 01:36:51;;;;;;;17.33;8.75;;;;;;;;;;5069597;28;20033;-62
2023/10/07 01:39:16;;;;;;;16.58;10.80;;;;;;;;;;5071739;28;20028;-63
2023/10/07 01:41:41;;;;;;;16.80;9.65;;;;;;;;;;5069169;28;20090;-63
2023/10/07 01:44:08;;;;;;;20.15;10.25;;;;;;;;;;5070821;28;20029;-64
2023/10/07 01:46:34;;;;;;;17.88;9.75;;;;;;;;;;5069879;28;20036;-71
2023/10/07 01:49:01;;;;;;;16.27;10.80;;;;;;;;;;5070513;28;20016;-63
2023/10/07 01:51:29;;;;;;;20.00;10.20;;;;;;;;;;5069753;28;20037;-62
2023/10/07 01:53:56;;;;;;;17.40;10.40;;;;;;;;;;5071123;28;20028;-63
2023/10/07 01:56:22;;;;;;;22.38;11.13;;;;;;;;;;5068851;28;20392;-63
2023/10/07 01:58:47;;;;;;;23.63;13.05;;;;;;;;;;5071137;28;20017;-63
2023/10/07 02:01:16;;;;;;;20.98;11.45;;;;;;;;;;5069776;28;20056;-63
2023/10/07 02:03:43;;;;;;;21.92;14.38;;;;;;;;;;5069991;28;20035;-62
2023/10/07 02:06:08;;;;;;;20.98;12.68;;;;;;;;;;5069805;28;20031;-62
2023/10/07 02:08:37;;;;;;;15.77;11.13;;;;;;;;;;5069771;28;20383;-62
2023/10/07 02:11:05;;;;;;;16.67;11.32;;;;;;;;;;5068666;28;20051;-62
2023/10/07 02:13:30;;;;;;;27.38;12.80;;;;;;;;;;5071022;28;20025;-62
2023/10/07 02:15:56;;;;;;;18.92;12.35;;;;;;;;;;5069293;28;20043;-62
2023/10/07 02:18:22;;;;;;;33.07;12.07;;;;;;;;;;5070336;28;20066;-62
2023/10/07 02:20:49;;;;;;;17.85;12.07;;;;;;;;;;5069367;28;20032;-62
2023/10/07 02:23:20;;;;;;;19.20;12.43;;;;;;;;;;5070383;28;20483;-70
2023/10/07 02:25:49;;;;;;;34.42;14.00;;;;;;;;;;5067391;28;20039;-63
2023/10/07 02:28:14;;;;;;;20.15;13.23;;;;;;;;;;5070960;28;20020;-62
2023/10/07 02:30:46;;;;;;;24.83;10.82;;;;;;;;;;5069115;28;20043;-62
2023/10/07 02:33:13;;;;;;;20.55;11.70;;;;;;;;;;5070267;28;20025;-62
2023/10/07 02:35:39;;;;;;;19.02;11.75;;;;;;;;;;5069460;28;20429;-63
2023/10/07 02:38:04;;;;;;;19.48;13.00;;;;;;;;;;5070613;28;20017;-63
2023/10/07 02:40:35;;;;;;;35.03;15.67;;;;;;;;;;5068940;28;20082;-63
2023/10/07 02:43:06;;;;;;;23.58;13.15;;;;;;;;;;5070418;28;20888;-62
2023/10/07 02:45:39;;;;;;;23.50;10.65;;;;;;;;;;5073320;28;20484;-62
2023/10/07 02:48:04;;;;;;;19.65;12.15;;;;;;;;;;5074325;28;20434;-62
2023/10/07 02:50:31;;;;;;;29.97;14.90;;;;;;;;;;5073428;28;20036;-62
2023/10/07 02:52:57;;;;;;;18.88;13.25;;;;;;;;;;5074214;28;20025;-62
2023/10/07 02:57:54;;;;;;;26.30;13.02;;;;;;;;;;5074152;28;20535;-62
2023/10/07 03:00:35;;;;;;;25.75;12.98;;;;;;;;;;5073101;28;20549;-62
2023/10/07 03:05:45;;;;;;;18.48;12.68;;;;;;;;;;5073098;28;20040;-62
2023/10/07 03:08:19;;;;;;;20.27;14.13;;;;;;;;;;5072989;28;20020;-62
2023/10/07 03:10:44;;;;;;;24.48;13.75;;;;;;;;;;5072179;28;20036;-61
2023/10/07 03:13:15;;;;;;;35.60;17.00;;;;;;;;;;5073922;28;20108;-61
2023/10/07 03:15:41;;;;;;;27.73;18.45;;;;;;;;;;5072598;28;20036;-61
2023/10/07 03:18:21;;;;;;;27.23;15.43;;;;;;;;;;5073957;28;20126;-62
2023/10/07 03:20:48;;;;;;;21.15;13.52;;;;;;;;;;5072434;28;20064;-70
2023/10/07 03:23:15;;;;;;;30.98;15.90;;;;;;;;;;5073752;28;20043;-62
2023/10/07 03:28:18;;;;;;;21.63;15.48;;;;;;;;;;5074292;28;20024;-62
2023/10/07 03:30:55;;;;;;;25.00;16.45;;;;;;;;;;5071996;28;20044;-62
2023/10/07 03:34:07;;;;;;;26.00;14.85;;;;;;;;;;5073423;28;20048;-62
2023/10/07 03:36:30;;;;;;;24.95;15.75;;;;;;;;;;5069418;28;20099;-62
2023/10/07 03:41:41;;;;;;;38.50;17.35;;;;;;;;;;5072503;28;20037;-62
2023/10/07 03:44:06;;;;;;;31.35;17.58;;;;;;;;;;5073593;28;20020;-61
2023/10/07 03:46:34;;;;;;;31.60;17.33;;;;;;;;;;5071951;28;20098;-60
2023/10/07 03:48:59;;;;;;;30.50;18.67;;;;;;;;;;5073381;28;20032;-61
2023/10/07 03:51:30;;;;;;;30.15;17.17;;;;;;;;;;5072230;28;20037;-60
2023/10/07 03:54:00;;;;;;;26.17;18.10;;;;;;;;;;5072633;28;20563;-61
2023/10/07 03:56:25;;;;;;;34.47;20.10;;;;;;;;;;5071230;28;20036;-63
2023/10/07 03:58:51;;;;;;;32.20;18.90;;;;;;;;;;5072865;28;20077;-61
2023/10/07 04:01:19;;;;;;;26.27;17.67;;;;;;;;;;5071700;28;20470;-61
2023/10/07 04:03:46;;;;;;;22.83;18.27;;;;;;;;;;5073225;28;20031;-61
2023/10/07 04:06:17;;;;;;;34.65;18.08;;;;;;;;;;5071739;28;20582;-61
2023/10/07 04:08:44;;;;;;;28.48;19.88;;;;;;;;;;5072921;28;20029;-61
2023/10/07 04:11:16;;;;;;;30.30;20.27;;;;;;;;;;5071838;28;20043;-61
2023/10/07 04:13:43;;;;;;;38.08;21.48;;;;;;;;;;5072396;28;20487;-61
2023/10/07 04:16:22;;;;;;;39.88;22.10;;;;;;;;;;5070273;28;20037;-62
2023/10/07 04:18:47;;;;;;;39.78;19.27;;;;;;;;;;5072338;28;20533;-62
2023/10/07 04:21:12;;;;;;;27.03;19.00;;;;;;;;;;5071068;28;20071;-61
2023/10/07 04:23:43;;;;;;;32.65;20.60;;;;;;;;;;5072213;28;20023;-64
2023/10/07 04:26:10;;;;;;;27.70;19.92;;;;;;;;;;5071255;28;20037;-72
2023/10/07 04:28:35;;;;;;;30.90;19.05;;;;;;;;;;5072583;28;20031;-62
2023/10/07 04:31:09;;;;;;;27.70;19.75;;;;;;;;;;5070599;28;20036;-62
2023/10/07 04:33:39;;;;;;;54.25;20.58;;;;;;;;;;5072922;28;20036;-63
2023/10/07 04:36:10;;;;;;;30.65;21.45;;;;;;;;;;5070933;28;20035;-62
2023/10/07 04:38:55;;;;;;;28.80;22.25;;;;;;;;;;5071889;28;20026;-62
2023/10/07 04:46:30;;;;;;;32.00;20.23;;;;;;;;;;5066764;28;20055;-62
2023/10/07 04:48:56;;;;;;;34.20;21.60;;;;;;;;;;5072423;28;20024;-62
2023/10/07 04:52:06;;;;;;;31.90;22.73;;;;;;;;;;5070795;28;20031;-62
2023/10/07 04:54:11;;;;;;;39.88;23.48;;;;;;;;;;5064054;28;20031;-61
2023/10/07 04:56:36;;;;;;;38.40;21.08;;;;;;;;;;5069175;28;20033;-63
2023/10/07 04:59:06;;;;;;;32.63;21.58;;;;;;;;;;5071651;28;20016;-62
2023/10/07 05:01:31;;;;;;;40.25;22.55;;;;;;;;;;5069833;28;20036;-62
2023/10/07 05:04:09;;;;;;;28.13;20.65;;;;;;;;;;5070272;28;20606;-62
2023/10/07 05:06:34;;;;;;;63.33;22.50;;;;;;;;;;5070234;28;20506;-67
2023/10/07 05:09:03;;;;;;;33.42;21.25;;;;;;;;;;5071205;28;20024;-62
2023/10/07 05:11:29;;;;;;;37.83;23.77;;;;;;;;;;5069339;28;20487;-62
2023/10/07 05:13:55;;;;;;;44.67;24.63;;;;;;;;;;5071582;28;20027;-62
2023/10/07 05:16:22;;;;;;;38.80;23.70;;;;;;;;;;5069626;28;20032;-61
2023/10/07 05:18:47;;;;;;;37.10;22.25;;;;;;;;;;5070019;28;20048;-62
2023/10/07 05:21:15;;;;;;;46.05;20.90;;;;;;;;;;5069857;28;20475;-62
2023/10/07 05:23:41;;;;;;;31.40;22.50;;;;;;;;;;5070950;28;20107;-63
2023/10/07 05:26:09;;;;;;;44.22;25.02;;;;;;;;;;5069191;28;20033;-62
2023/10/07 05:28:34;;;;;;;68.90;27.17;;;;;;;;;;5071118;28;20038;-61
2023/10/07 05:31:03;;;;;;;49.30;29.95;;;;;;;;;;5068874;28;20115;-62
2023/10/07 05:33:32;;;;;;;41.90;26.27;;;;;;;;;;5070242;28;20113;-63
2023/10/07 05:35:58;;;;;;;;;;;;;;;;;;5070078;28;20177;-62
2023/10/07 05:38:23;;;;;;;41.60;27.75;;;;;;;;;;5070555;28;19977;-63
2023/10/07 05:40:48;;;;;;;38.33;26.23;;;;;;;;;;5067941;28;20551;-62
2023/10/07 05:43:13;;;;;;;45.72;25.88;;;;;;;;;;5070750;28;20032;-61
2023/10/07 05:45:40;;;;;;;38.03;23.83;;;;;;;;;;5069047;28;20132;-63
2023/10/07 05:48:05;;;;;;;47.55;27.35;;;;;;;;;;5069788;28;20020;-62
2023/10/07 05:50:32;;;;;;;32.63;22.75;;;;;;;;;;5067224;28;20048;-61
2023/10/07 05:52:58;;;;;;;48.13;27.75;;;;;;;;;;5069576;28;20032;-62
2023/10/07 05:55:23;;;;;;;39.72;26.67;;;;;;;;;;5068104;28;20043;-62
2023/10/07 05:57:51;;;;;;;29.53;22.77;;;;;;;;;;5070497;28;20379;-60
2023/10/07 06:00:17;;;;;;;35.75;23.23;;;;;;;;;;5069186;28;20451;-71
2023/10/07 06:02:42;;;;;;;43.05;22.10;;;;;;;;;;5068941;28;20031;-60
2023/10/07 06:05:10;;;;;;;32.15;23.70;;;;;;;;;;5068922;28;20086;-60
2023/10/07 06:07:36;;;;;;;38.20;24.95;;;;;;;;;;5070220;28;20016;-60
2023/10/07 06:10:02;;;;;;;40.07;24.27;;;;;;;;;;5068061;28;20103;-60
2023/10/07 06:12:28;;;;;;;32.28;23.83;;;;;;;;;;5069630;28;20439;-60
2023/10/07 06:14:54;;;;;;;33.80;23.08;;;;;;;;;;5067923;28;20025;-60
2023/10/07 06:17:20;;;;;;;39.55;23.42;;;;;;;;;;5069495;28;20013;-60
2023/10/07 06:19:45;;;;;;;35.60;24.63;;;;;;;;;;5068870;28;20028;-61
2023/10/07 06:22:15;;;;;;;40.67;26.63;;;;;;;;;;5068478;28;20318;-60
2023/10/07 06:24:40;;;;;;;44.53;26.45;;;;;;;;;;5070067;28;20415;-60
2023/10/07 06:27:11;;;;;;;39.63;23.33;;;;;;;;;;5067746;28;20029;-69
2023/10/07 06:29:43;;;;;;;29.83;23.98;;;;;;;;;;5069735;28;20491;-61
2023/10/07 06:32:24;;;;;;;40.47;24.00;;;;;;;;;;5068849;28;20483;-60
2023/10/07 06:34:54;;;;;;;40.25;25.58;;;;;;;;;;5068002;28;20049;-59
2023/10/07 06:37:28;;;;;;;38.10;25.60;;;;;;;;;;5069236;28;20027;-60
2023/10/07 06:39:53;;;;;;;52.25;27.13;;;;;;;;;;5066785;28;20031;-59
2023/10/07 06:42:24;;;;;;;41.77;24.77;;;;;;;;;;5069380;28;20016;-60
2023/10/07 06:44:49;;;;;;;50.53;25.63;;;;;;;;;;5067895;28;20021;-60
2023/10/07 06:47:14;;;;;;;55.77;25.90;;;;;;;;;;5069464;28;20035;-60
2023/10/07 06:49:40;;;;;;;44.30;24.27;;;;;;;;;;5069996;28;20036;-60
2023/10/07 06:52:05;;;;;;;40.07;25.87;;;;;;;;;;5068249;28;20032;-60
2023/10/07 06:54:32;;;;;;;33.78;23.55;;;;;;;;;;5070065;28;20020;-60
2023/10/07 06:56:58;;;;;;;40.88;26.38;;;;;;;;;;5068313;28;20109;-60
2023/10/07 06:59:27;;;;;;;34.58;24.95;;;;;;;;;;5070128;28;20060;-60
2023/10/07 07:01:54;;;;;;;29.60;22.23;;;;;;;;;;5068394;28;20040;-60
2023/10/07 07:04:21;;;;;;;40.30;24.45;;;;;;;;;;5070191;28;20028;-60
2023/10/07 07:06:57;;;;;;;34.58;25.67;;;;;;;;;;5068022;28;20403;-60
2023/10/07 07:12:09;;;;;;;42.00;24.73;;;;;;;;;;5067682;28;20163;-58
2023/10/07 07:14:34;;;;;;;37.50;24.20;;;;;;;;;;5069659;28;20416;-59
2023/10/07 07:20:19;;;;;;;40.95;26.05;;;;;;;;;;5068019;28;20241;-58
2023/10/07 07:22:42;;;;;;;60.05;26.67;;;;;;;;;;5069322;28;20387;-59
2023/10/07 07:25:12;;;;;;;42.20;24.92;;;;;;;;;;5063091;28;20024;-59
2023/10/07 07:27:48;;;;;;;38.08;24.73;;;;;;;;;;5051774;28;20049;-60
2023/10/07 07:30:19;;;;;;;40.17;23.23;;;;;;;;;;5054948;28;20486;-59
2023/10/07 07:32:44;;;;;;;32.58;24.27;;;;;;;;;;5065467;28;20025;-59
2023/10/07 07:35:10;;;;;;;32.43;22.43;;;;;;;;;;5051671;28;20175;-59
2023/10/07 07:37:36;;;;;;;39.67;22.38;;;;;;;;;;5051772;28;20844;-58
2023/10/07 07:40:28;;;;;;;30.75;21.05;;;;;;;;;;5051143;28;20021;-59
2023/10/07 07:42:56;;;;;;;35.67;22.00;;;;;;;;;;5052386;28;20834;-58
2023/10/07 07:45:27;;;;;;;37.72;22.77;;;;;;;;;;5055579;28;20028;-59
2023/10/07 07:47:55;;;;;;;27.10;20.33;;;;;;;;;;5072853;28;20095;-59
2023/10/07 07:50:21;;;;;;;42.40;22.30;;;;;;;;;;5061258;28;20041;-59
2023/10/07 07:52:49;;;;;;;37.00;23.83;;;;;;;;;;5069517;28;20019;-63
2023/10/07 07:55:17;;;;;;;34.72;22.85;;;;;;;;;;5071339;28;20028;-58
2023/10/07 07:57:45;;;;;;;40.90;22.73;;;;;;;;;;5072427;28;20028;-58
2023/10/07 08:00:20;;;;;;;53.22;24.92;;;;;;;;;;5070314;28;20044;-58
2023/10/07 08:02:48;;;;;;;40.53;21.40;;;;;;;;;;5070167;28;20025;-59
2023/10/07 08:05:16;;;;;;;37.50;22.02;;;;;;;;;;5070844;28;20068;-58
2023/10/07 08:07:43;;;;;;;35.75;21.38;;;;;;;;;;5072551;28;20025;-59
2023/10/07 08:10:10;;;;;;;36.53;20.98;;;;;;;;;;5071210;28;20078;-59
2023/10/07 08:12:36;;;;;;;28.75;21.40;;;;;;;;;;5072681;28;20485;-59
2023/10/07 08:17:39;;;;;;;33.22;21.77;;;;;;;;;;5061164;28;20032;-59
2023/10/07 08:20:11;;;;;;;31.55;21.42;;;;;;;;;;5051886;28;20495;-59
2023/10/07 08:22:44;;;;;;;25.58;20.40;;;;;;;;;;5056834;28;20475;-59
2023/10/07 08:25:10;;;;;;;36.20;20.38;;;;;;;;;;5053886;28;20564;-59
2023/10/07 08:27:45;;;;;;;31.70;18.73;;;;;;;;;;5052188;28;20021;-59
2023/10/07 08:30:15;;;;;;;31.08;21.35;;;;;;;;;;5067804;28;20532;-59
2023/10/07 08:32:46;;;;;;;26.63;18.63;;;;;;;;;;5036848;28;20593;-59
2023/10/07 08:35:14;;;;;;;30.55;19.80;;;;;;;;;;5050806;28;20044;-60
2023/10/07 08:37:46;;;;;;;24.88;17.27;;;;;;;;;;5071865;28;20020;-59
2023/10/07 08:40:25;;;;;;;20.50;17.13;;;;;;;;;;5061715;28;20033;-59
2023/10/07 08:42:53;;;;;;;37.25;19.48;;;;;;;;;;5061596;28;20031;-59
2023/10/07 08:45:23;;;;;;;27.35;17.02;;;;;;;;;;5070776;28;20048;-59
2023/10/07 08:47:49;;;;;;;23.48;14.27;;;;;;;;;;5069904;28;20570;-59
2023/10/07 08:50:19;;;;;;;22.02;16.83;;;;;;;;;;5065850;28;20040;-64
2023/10/07 08:52:44;;;;;;;24.88;17.75;;;;;;;;;;5069783;28;20017;-60
2023/10/07 08:55:09;;;;;;;15.32;12.45;;;;;;;;;;5070349;28;20044;-60
2023/10/07 08:57:35;;;;;;;22.42;13.00;;;;;;;;;;5070655;28;20496;-60
2023/10/07 09:00:00;;;;;;;22.70;15.32;;;;;;;;;;5069381;28;20047;-60
2023/10/07 09:02:30;;;;;;;26.15;13.20;;;;;;;;;;5072232;28;20150;-60
2023/10/07 09:04:57;;;;;;;23.88;14.68;;;;;;;;;;5069673;28;20016;-60
2023/10/07 09:07:23;;;;;;;22.08;14.40;;;;;;;;;;5071896;28;20529;-60
2023/10/07 09:09:48;;;;;;;20.58;12.63;;;;;;;;;;5071682;28;20025;-60
2023/10/07 09:12:28;;;;;;;12.70;10.82;;;;;;;;;;5069465;28;20037;-59
2023/10/07 09:14:57;;;;;;;20.55;12.75;;;;;;;;;;5070389;28;20064;-61
2023/10/07 09:17:23;;;;;;;21.10;12.98;;;;;;;;;;5071835;28;20020;-60
2023/10/07 09:19:52;;;;;;;25.85;11.70;;;;;;;;;;5070763;28;20043;-60
2023/10/07 09:22:24;;;;;;;23.33;11.52;;;;;;;;;;5070184;28;20041;-60
2023/10/07 09:24:49;;;;;;;22.10;11.98;;;;;;;;;;5070505;28;20040;-60
2023/10/07 09:27:14;;;;;;;30.03;12.30;;;;;;;;;;5068820;28;20079;-59
2023/10/07 09:29:44;;;;;;;15.47;11.77;;;;;;;;;;5071519;28;20987;-60
2023/10/07 09:32:32;;;;;;;37.65;13.70;;;;;;;;;;5069888;28;20032;-61
2023/10/07 09:34:57;;;;;;;19.38;12.50;;;;;;;;;;5068748;28;20055;-60
2023/10/07 09:37:26;;;;;;;22.38;12.45;;;;;;;;;;5070667;28;20391;-60
2023/10/07 09:39:55;;;;;;;19.95;10.68;;;;;;;;;;5069453;28;20032;-59
2023/10/07 09:42:27;;;;;;;18.45;12.77;;;;;;;;;;5070980;28;20027;-60
2023/10/07 09:44:55;;;;;;;22.33;11.27;;;;;;;;;;5068733;28;20043;-60
2023/10/07 09:47:21;;;;;;;;;;;;;;;;;;5070541;28;20095;-59
2023/10/07 09:49:46;;;;;;;16.95;12.35;;;;;;;;;;5070573;28;19995;-67
2023/10/07 09:52:17;;;;;;;23.77;13.00;;;;;;;;;;5069572;28;20053;-60
2023/10/07 09:54:48;;;;;;;20.50;11.95;;;;;;;;;;5065036;28;20036;-60
2023/10/07 09:57:20;;;;;;;22.50;12.50;;;;;;;;;;5052114;28;20381;-60
2023/10/07 10:00:37;;;;;;;14.02;9.98;;;;;;;;;;5050453;28;20036;-60
2023/10/07 10:03:04;;;;;;;21.02;9.90;;;;;;;;;;5064326;28;20548;-60
2023/10/07 10:05:50;;;;;;;18.40;10.85;;;;;;;;;;5061385;28;20044;-60
2023/10/07 10:08:35;;;;;;;21.17;11.98;;;;;;;;;;5050009;28;20498;-60
2023/10/07 10:11:08;;;;;;;19.88;10.75;;;;;;;;;;5054220;28;20087;-60
2023/10/07 10:16:04;;;;;;;14.73;9.13;;;;;;;;;;5048891;28;20040;-60
2023/10/07 10:18:35;;;;;;;14.40;9.87;;;;;;;;;;5051804;28;20486;-60
2023/10/07 10:21:04;;;;;;;15.70;10.57;;;;;;;;;;5056397;28;20465;-60
2023/10/07 10:23:32;;;;;;;30.85;14.95;;;;;;;;;;5056272;28;20498;-60
2023/10/07 10:25:59;;;;;;;13.88;10.75;;;;;;;;;;5066925;28;20051;-60
2023/10/07 10:28:27;;;;;;;11.88;9.30;;;;;;;;;;5070702;28;20051;-60
2023/10/07 10:30:53;;;;;;;18.98;10.25;;;;;;;;;;5068801;28;20032;-60
2023/10/07 10:33:23;;;;;;;21.20;11.00;;;;;;;;;;5061951;28;20095;-61
2023/10/07 10:35:51;;;;;;;17.80;11.10;;;;;;;;;;5048842;28;20052;-60
2023/10/07 10:38:16;;;;;;;10.68;8.98;;;;;;;;;;5050439;28;20031;-60
2023/10/07 10:40:45;;;;;;;18.23;11.30;;;;;;;;;;5049738;28;20037;-60
2023/10/07 10:43:20;;;;;;;14.30;9.38;;;;;;;;;;5050761;28;20075;-61
2023/10/07 10:45:45;;;;;;;16.95;10.63;;;;;;;;;;5049204;28;20450;-61
2023/10/07 10:48:11;;;;;;;21.65;11.02;;;;;;;;;;5050298;28;20025;-60
2023/10/07 10:50:38;;;;;;;14.63;9.17;;;;;;;;;;5049115;28;20041;-61
2023/10/07 10:53:05;;;;;;;19.20;10.85;;;;;;;;;;5056559;28;20072;-60
2023/10/07 10:55:33;;;;;;;20.95;11.05;;;;;;;;;;5048847;28;20037;-60
2023/10/07 10:58:00;;;;;;;27.63;10.13;;;;;;;;;;5057153;28;20510;-60
2023/10/07 11:00:25;;;;;;;16.77;10.32;;;;;;;;;;5050421;28;20430;-60
2023/10/07 11:02:51;;;;;;;20.35;10.25;;;;;;;;;;5050147;28;20025;-60
2023/10/07 11:05:17;;;;;;;16.00;9.27;;;;;;;;;;5050958;28;20032;-60
2023/10/07 11:07:42;;;;;;;21.95;10.27;;;;;;;;;;5056411;28;20099;-67
2023/10/07 11:10:08;;;;;;;17.05;10.25;;;;;;;;;;5072677;28;20036;-60
2023/10/07 11:12:36;;;;;;;25.27;11.38;;;;;;;;;;5072463;28;20044;-59
2023/10/07 11:15:07;;;;;;;16.50;10.02;;;;;;;;;;5062190;28;20074;-60
2023/10/07 11:17:37;;;;;;;18.48;9.05;;;;;;;;;;5056943;28;20078;-60
2023/10/07 11:20:03;;;;;;;12.55;8.35;;;;;;;;;;5072129;28;20021;-59
2023/10/07 11:22:36;;;;;;;12.98;9.05;;;;;;;;;;5074045;28;20401;-60
2023/10/07 11:25:04;;;;;;;11.32;8.23;;;;;;;;;;5072157;28;20099;-60
2023/10/07 11:27:29;;;;;;;15.05;9.98;;;;;;;;;;5074122;28;20406;-59
2023/10/07 11:29:58;;;;;;;16.67;8.43;;;;;;;;;;5072215;28;20016;-60
2023/10/07 11:32:29;;;;;;;16.88;11.65;;;;;;;;;;5073765;28;20174;-66
2023/10/07 11:34:54;;;;;;;13.10;8.98;;;;;;;;;;5072188;28;20040;-60
2023/10/07 11:37:22;;;;;;;13.35;7.93;;;;;;;;;;5062943;28;20112;-60
2023/10/07 11:39:47;;;;;;;20.27;9.07;;;;;;;;;;5051860;28;20103;-59
2023/10/07 11:42:17;;;;;;;12.30;8.52;;;;;;;;;;5053908;28;20092;-59
2023/10/07 11:44:42;;;;;;;20.98;9.73;;;;;;;;;;5053362;28;20100;-60
2023/10/07 11:47:09;;;;;;;19.80;11.35;;;;;;;;;;5071404;28;20123;-60
2023/10/07 11:49:34;;;;;;;11.07;9.23;;;;;;;;;;5073511;28;20474;-59
2023/10/07 11:52:01;;;;;;;18.27;8.52;;;;;;;;;;5071599;28;20140;-60
2023/10/07 11:54:28;;;;;;;13.25;7.97;;;;;;;;;;5073195;28;20089;-60
2023/10/07 11:56:53;;;;;;;18.27;10.18;;;;;;;;;;5052409;28;20099;-60
2023/10/07 11:59:19;;;;;;;20.23;8.47;;;;;;;;;;5053486;28;20021;-61
2023/10/07 12:01:44;;;;;;;21.15;8.80;;;;;;;;;;5051351;28;20083;-60
2023/10/07 12:04:11;;;;;;;10.55;6.72;;;;;;;;;;5053451;28;20439;-60
2023/10/07 12:06:36;;;;;;;18.10;9.77;;;;;;;;;;5067469;28;20041;-60
2023/10/07 12:09:06;;;;;;;14.60;7.15;;;;;;;;;;5072133;28;20542;-68
2023/10/07 12:11:32;;;;;;;23.98;9.93;;;;;;;;;;5071724;28;20037;-60
2023/10/07 12:13:57;;;;;;;18.15;7.95;;;;;;;;;;5072033;28;20024;-60
2023/10/07 12:16:22;;;;;;;13.32;8.52;;;;;;;;;;5069485;28;20040;-60
2023/10/07 12:18:48;;;;;;;16.75;8.30;;;;;;;;;;5072249;28;20062;-60
2023/10/07 12:21:13;;;;;;;15.13;6.82;;;;;;;;;;5067805;28;20561;-60
2023/10/07 12:23:40;;;;;;;15.75;7.68;;;;;;;;;;5071976;28;20021;-60
2023/10/07 12:26:09;;;;;;;12.40;6.78;;;;;;;;;;5071137;28;20610;-60
2023/10/07 12:28:34;;;;;;;13.80;7.57;;;;;;;;;;5072701;28;20036;-58
2023/10/07 12:31:01;;;;;;;20.85;9.68;;;;;;;;;;5069666;28;20482;-60
2023/10/07 12:33:26;;;;;;;12.15;8.25;;;;;;;;;;5062662;28;20682;-62
2023/10/07 12:35:51;;;;;;;13.20;6.15;;;;;;;;;;5070398;28;20036;-59
2023/10/07 12:38:16;;;;;;;13.43;6.43;;;;;;;;;;5071969;28;20027;-59
2023/10/07 12:40:41;;;;;;;12.98;6.22;;;;;;;;;;5070079;28;20033;-59
2023/10/07 12:43:07;;;;;;;16.23;6.87;;;;;;;;;;5071242;28;20035;-59
2023/10/07 12:45:32;;;;;;;14.57;6.23;;;;;;;;;;5070576;28;20036;-59
2023/10/07 12:47:57;;;;;;;20.93;6.87;;;;;;;;;;5071231;28;20422;-60
2023/10/07 12:50:29;;;;;;;21.35;9.93;;;;;;;;;;5070710;28;20036;-59
2023/10/07 12:52:55;;;;;;;18.65;7.38;;;;;;;;;;5072290;28;20024;-59
2023/10/07 12:55:21;;;;;;;13.13;6.20;;;;;;;;;;5070765;28;20395;-59
2023/10/07 12:57:49;;;;;;;15.63;4.93;;;;;;;;;;5072334;28;20074;-59
2023/10/07 13:00:22;;;;;;;11.82;5.93;;;;;;;;;;5071129;28;20024;-59
2023/10/07 13:02:50;;;;;;;14.30;6.05;;;;;;;;;;5072087;28;20422;-59
2023/10/07 13:05:18;;;;;;;17.23;6.78;;;;;;;;;;5070935;28;20032;-59
2023/10/07 13:07:44;;;;;;;11.45;5.35;;;;;;;;;;5071890;28;20028;-58
2023/10/07 13:10:11;;;;;;;14.32;7.38;;;;;;;;;;5070569;28;20403;-59
2023/10/07 13:12:36;;;;;;;16.93;8.73;;;;;;;;;;5072010;28;20403;-64
2023/10/07 13:15:01;;;;;;;18.98;5.90;;;;;;;;;;5070447;28;20028;-72
2023/10/07 13:17:27;;;;;;;13.13;5.57;;;;;;;;;;5071420;28;20024;-58
2023/10/07 13:19:52;;;;;;;15.18;7.18;;;;;;;;;;5069269;28;20520;-59
2023/10/07 13:22:18;;;;;;;22.73;7.33;;;;;;;;;;5071864;28;20004;-60
2023/10/07 13:24:46;;;;;;;18.33;6.88;;;;;;;;;;5071537;28;20356;-58
2023/10/07 13:27:14;;;;;;;10.27;6.13;;;;;;;;;;5070145;28;20038;-58
2023/10/07 13:29:40;;;;;;;11.90;5.93;;;;;;;;;;5070878;28;20375;-59
2023/10/07 13:32:08;;;;;;;11.75;6.03;;;;;;;;;;5068331;28;20032;-58
2023/10/07 13:34:38;;;;;;;;;;;;;;;;;;5071923;28;20454;-58
2023/10/07 13:37:06;;;;;;;12.05;6.28;;;;;;;;;;5069737;28;19912;-58
2023/10/07 13:39:31;;;;;;;15.02;6.07;;;;;;;;;;5071642;28;20042;-58
2023/10/07 13:41:56;;;;;;;21.88;6.38;;;;;;;;;;5069799;28;20041;-58
2023/10/07 13:44:22;;;;;;;10.97;6.23;;;;;;;;;;5071812;28;20017;-58
2023/10/07 13:46:48;;;;;;;12.60;6.78;;;;;;;;;;5069538;28;20037;-59
2023/10/07 13:49:13;;;;;;;13.60;6.68;;;;;;;;;;5071712;28;20074;-58
2023/10/07 13:51:40;;;;;;;13.38;6.15;;;;;;;;;;5070039;28;20029;-58
2023/10/07 13:56:55;;;;;;;25.83;7.00;;;;;;;;;;5069543;28;20037;-58
2023/10/07 13:59:21;;;;;;;17.45;8.05;;;;;;;;;;5071178;28;20533;-59
2023/10/07 14:01:47;;;;;;;20.60;7.35;;;;;;;;;;5069053;28;20044;-69
2023/10/07 14:04:15;;;;;;;18.88;8.10;;;;;;;;;;5071027;28;20012;-59
2023/10/07 14:06:41;;;;;;;15.00;6.78;;;;;;;;;;5069661;28;20037;-65
2023/10/07 14:09:15;;;;;;;19.85;6.97;;;;;;;;;;5069851;28;20013;-59
2023/10/07 14:11:41;;;;;;;12.02;5.75;;;;;;;;;;5069338;28;20056;-58
2023/10/07 14:14:06;;;;;;;13.90;5.47;;;;;;;;;;5071227;28;20055;-59
2023/10/07 14:16:32;;;;;;;12.97;5.97;;;;;;;;;;5069164;28;20032;-59
2023/10/07 14:18:57;;;;;;;14.48;6.10;;;;;;;;;;5071060;28;20020;-59
2023/10/07 14:21:25;;;;;;;16.52;6.72;;;;;;;;;;5069542;28;20531;-60
2023/10/07 14:23:51;;;;;;;15.63;6.60;;;;;;;;;;5070575;28;20103;-59
2023/10/07 14:26:16;;;;;;;15.27;8.55;;;;;;;;;;5069493;28;20029;-59
2023/10/07 14:28:44;;;;;;;13.07;6.13;;;;;;;;;;5070972;28;20012;-59
2023/10/07 14:31:11;;;;;;;;;;;;;;;;;;5069483;28;20044;-59
2023/10/07 14:33:36;;;;;;;15.63;7.13;;;;;;;;;;5070729;28;19913;-59
2023/10/07 14:36:02;;;;;;;22.45;7.93;;;;;;;;;;5069202;28;20039;-59
2023/10/07 14:38:30;;;;;;;12.18;5.80;;;;;;;;;;5070126;28;20087;-59
2023/10/07 14:40:55;;;;;;;;;;;;;;;;;;5069425;28;20040;-59
2023/10/07 14:43:21;;;;;;;18.00;6.18;;;;;;;;;;5070735;28;19904;-59
2023/10/07 14:45:47;;;;;;;20.10;5.80;;;;;;;;;;5068631;28;20036;-60
2023/10/07 14:48:12;;;;;;;14.10;6.70;;;;;;;;;;5070596;28;20471;-59
2023/10/07 14:50:40;;;;;;;13.80;5.83;;;;;;;;;;5069405;28;20132;-59
2023/10/07 14:53:05;;;;;;;16.83;6.17;;;;;;;;;;5070181;28;20059;-60
2023/10/07 14:55:32;;;;;;;13.20;6.68;;;;;;;;;;5069294;28;20056;-59
2023/10/07 14:58:00;;;;;;;18.70;6.90;;;;;;;;;;5070416;28;20029;-58
2023/10/07 15:00:25;;;;;;;;;;;;;;;;;;5069107;28;20536;-59
2023/10/07 15:02:50;;;;;;;20.95;6.07;;;;;;;;;;5070508;28;20347;-59
2023/10/07 15:05:16;;;;;;;13.73;6.75;;;;;;;;;;5068996;28;20029;-59